createdAt,value
2022-12-29T00:00:34.910Z,-0.18
2022-12-29T00:01:38.283Z,-0.14
2022-12-29T00:02:40.279Z,-0.11
2022-12-29T00:03:43.191Z,-0.07
2022-12-29T00:04:45.108Z,-0.03
2022-12-29T00:05:56.344Z,0.01
2022-12-29T00:06:58.186Z,0.02
2022-12-29T00:08:01.039Z,0.03
2022-12-29T00:09:03.005Z,0.06
2022-12-29T00:10:06.891Z,0.08
2022-12-29T00:11:12.330Z,0.11
2022-12-29T00:12:15.157Z,0.13
2022-12-29T00:13:35.678Z,0.15
2022-12-29T00:14:55.815Z,0.17
2022-12-29T00:15:58.073Z,0.16
2022-12-29T00:17:00.835Z,0.18
2022-12-29T00:18:02.665Z,0.20
2022-12-29T00:19:06.348Z,0.21
2022-12-29T00:20:28.414Z,0.20
2022-12-29T00:21:48.593Z,0.19
2022-12-29T00:23:08.990Z,0.17
2022-12-29T00:24:32.223Z,0.15
2022-12-29T00:26:11.361Z,0.13
2022-12-29T00:27:33.887Z,0.12
2022-12-29T00:28:54.236Z,0.12
2022-12-29T00:30:14.485Z,0.10
2022-12-29T00:31:35.114Z,0.07
2022-12-29T00:32:55.644Z,0.05
2022-12-29T00:34:15.592Z,0.05
2022-12-29T00:35:24.625Z,0.04
2022-12-29T00:36:29.750Z,0.07
2022-12-29T00:37:46.599Z,0.08
2022-12-29T00:39:10.045Z,0.10
2022-12-29T00:40:45.456Z,0.14
2022-12-29T00:42:06.824Z,0.17
2022-12-29T00:43:29.336Z,0.17
2022-12-29T00:44:32.052Z,0.16
2022-12-29T00:45:33.830Z,0.16
2022-12-29T00:46:37.994Z,0.18
2022-12-29T00:47:39.770Z,0.18
2022-12-29T00:49:00.508Z,0.21
2022-12-29T00:50:03.876Z,0.21
2022-12-29T00:51:06.172Z,0.22
2022-12-29T00:52:11.869Z,0.21
2022-12-29T00:53:13.661Z,0.20
2022-12-29T00:54:18.535Z,0.22
2022-12-29T00:55:20.518Z,0.25
2022-12-29T00:56:23.348Z,0.27
2022-12-29T00:57:26.064Z,0.29
2022-12-29T00:58:30.275Z,0.32
2022-12-29T00:59:33.430Z,0.32
2022-12-29T01:00:35.959Z,0.33
2022-12-29T01:01:39.864Z,0.32
2022-12-29T01:02:42.926Z,0.32
2022-12-29T01:03:45.781Z,0.34
2022-12-29T01:04:48.531Z,0.36
2022-12-29T01:05:51.832Z,0.39
2022-12-29T01:06:55.023Z,0.43
2022-12-29T01:07:56.780Z,0.45
2022-12-29T01:09:14.544Z,0.48
2022-12-29T01:10:18.317Z,0.49
2022-12-29T01:11:20.058Z,0.49
2022-12-29T01:12:41.283Z,0.51
2022-12-29T01:13:46.709Z,0.47
2022-12-29T01:14:49.478Z,0.45
2022-12-29T01:15:52.010Z,0.45
2022-12-29T01:16:55.204Z,0.44
2022-12-29T01:17:56.997Z,0.45
2022-12-29T01:19:00.852Z,0.45
2022-12-29T01:20:04.185Z,0.45
2022-12-29T01:21:08.220Z,0.44
2022-12-29T01:22:10.058Z,0.44
2022-12-29T01:23:12.803Z,0.40
2022-12-29T01:24:16.470Z,0.40
2022-12-29T01:25:19.805Z,0.39
2022-12-29T01:26:21.583Z,0.39
2022-12-29T01:27:24.356Z,0.38
2022-12-29T01:28:26.556Z,0.38
2022-12-29T01:29:30.654Z,0.39
2022-12-29T01:30:33.435Z,0.38
2022-12-29T01:31:36.352Z,0.39
2022-12-29T01:32:38.262Z,0.38
2022-12-29T01:33:41.033Z,0.39
2022-12-29T01:34:42.877Z,0.39
2022-12-29T01:35:45.711Z,0.39
2022-12-29T01:36:47.499Z,0.38
2022-12-29T01:37:50.336Z,0.38
2022-12-29T01:38:52.155Z,0.37
2022-12-29T01:39:57.161Z,0.36
2022-12-29T01:40:59.180Z,0.36
2022-12-29T01:42:01.933Z,0.38
2022-12-29T01:43:05.170Z,0.40
2022-12-29T01:44:51.289Z,0.40
2022-12-29T01:45:56.081Z,0.36
2022-12-29T01:46:57.981Z,0.34
2022-12-29T01:48:04.051Z,0.32
2022-12-29T01:49:11.614Z,0.32
2022-12-29T01:50:17.975Z,0.30
2022-12-29T01:51:20.925Z,0.27
2022-12-29T01:52:25.122Z,0.27
2022-12-29T01:53:29.247Z,0.25
2022-12-29T01:54:34.472Z,0.25
2022-12-29T01:55:39.341Z,0.24
2022-12-29T01:56:44.603Z,0.25
2022-12-29T01:57:49.942Z,0.27
2022-12-29T01:58:56.849Z,0.29
2022-12-29T02:00:02.690Z,0.29
2022-12-29T02:01:15.918Z,0.32
2022-12-29T02:02:18.054Z,0.36
2022-12-29T02:17:05.321Z,0.36
2022-12-29T02:18:23.440Z,0.38
2022-12-29T02:19:46.752Z,0.43
2022-12-29T02:21:33.513Z,0.47
2022-12-29T02:22:41.685Z,0.48
2022-12-29T02:24:13.213Z,0.50
2022-12-29T02:25:52.605Z,0.51
2022-12-29T02:27:12.136Z,0.51
2022-12-29T02:28:58.760Z,0.48
2022-12-29T02:30:07.227Z,0.44
2022-12-29T02:31:15.290Z,0.42
2022-12-29T02:32:20.613Z,0.40
2022-12-29T02:33:33.176Z,0.40
2022-12-29T02:34:43.428Z,0.39
2022-12-29T02:35:53.119Z,0.36
2022-12-29T02:37:01.798Z,0.35
2022-12-29T02:38:13.292Z,0.34
2022-12-29T02:39:21.718Z,0.34
2022-12-29T02:40:27.424Z,0.34
2022-12-29T02:41:32.809Z,0.36
2022-12-29T02:42:39.039Z,0.34
2022-12-29T02:43:47.388Z,0.36
2022-12-29T02:44:54.897Z,0.35
2022-12-29T02:46:00.155Z,0.35
2022-12-29T02:47:07.345Z,0.34
2022-12-29T02:48:12.199Z,0.33
2022-12-29T02:49:17.940Z,0.32
2022-12-29T02:50:24.501Z,0.32
2022-12-29T02:51:31.402Z,0.31
2022-12-29T02:52:35.709Z,0.29
2022-12-29T02:53:52.843Z,0.28
2022-12-29T02:54:56.142Z,0.25
2022-12-29T02:55:57.928Z,0.24
2022-12-29T02:57:00.078Z,0.22
2022-12-29T02:58:18.531Z,0.21
2022-12-29T02:59:21.552Z,0.18
2022-12-29T03:00:24.416Z,0.17
2022-12-29T03:01:35.752Z,0.13
2022-12-29T03:03:12.107Z,0.10
2022-12-29T03:04:25.207Z,0.05
2022-12-29T03:05:44.281Z,0.04
2022-12-29T03:06:55.597Z,0.02
2022-12-29T03:08:04.233Z,0.02
2022-12-29T03:09:19.020Z,0.01
2022-12-29T03:10:30.925Z,-0.00
2022-12-29T03:11:54.091Z,-0.02
2022-12-29T03:13:22.620Z,-0.02
2022-12-29T03:14:52.234Z,-0.03
2022-12-29T03:16:04.316Z,-0.02
2022-12-29T03:17:10.983Z,0.00
2022-12-29T03:18:19.593Z,0.01
2022-12-29T03:19:24.764Z,0.01
2022-12-29T03:20:33.651Z,0.02
2022-12-29T03:21:57.337Z,0.01
2022-12-29T03:23:01.769Z,-0.02
2022-12-29T03:24:07.952Z,-0.03
2022-12-29T03:25:16.345Z,-0.05
2022-12-29T03:26:22.824Z,-0.06
2022-12-29T03:27:29.663Z,-0.07
2022-12-29T03:28:37.752Z,-0.10
2022-12-29T03:30:01.529Z,-0.12
2022-12-29T03:31:04.421Z,-0.13
2022-12-29T03:32:08.033Z,-0.13
2022-12-29T03:33:11.911Z,-0.13
2022-12-29T03:34:17.397Z,-0.12
2022-12-29T03:35:22.152Z,-0.13
2022-12-29T03:36:28.898Z,-0.14
2022-12-29T03:37:33.308Z,-0.17
2022-12-29T03:38:38.508Z,-0.18
2022-12-29T03:39:40.826Z,-0.21
2022-12-29T03:40:47.895Z,-0.25
2022-12-29T03:41:52.168Z,-0.30
2022-12-29T03:42:56.312Z,-0.34
2022-12-29T03:43:58.302Z,-0.38
2022-12-29T03:45:01.153Z,-0.41
2022-12-29T03:46:03.395Z,-0.43
2022-12-29T03:47:07.622Z,-0.46
2022-12-29T03:48:09.552Z,-0.49
2022-12-29T03:49:18.333Z,-0.51
2022-12-29T03:50:20.394Z,-0.51
2022-12-29T03:51:23.594Z,-0.52
2022-12-29T03:52:25.966Z,-0.52
2022-12-29T03:53:29.948Z,-0.52
2022-12-29T03:54:32.534Z,-0.50
2022-12-29T03:55:35.704Z,-0.48
2022-12-29T03:56:37.909Z,-0.49
2022-12-29T03:57:41.295Z,-0.48
2022-12-29T03:58:46.695Z,-0.48
2022-12-29T04:00:00.858Z,-0.49
2022-12-29T04:01:05.960Z,-0.50
2022-12-29T04:02:11.270Z,-0.52
2022-12-29T04:03:13.823Z,-0.54
2022-12-29T04:04:18.064Z,-0.57
2022-12-29T04:05:20.201Z,-0.62
2022-12-29T04:06:24.573Z,-0.67
2022-12-29T04:07:34.354Z,-0.73
2022-12-29T04:08:39.220Z,-0.79
2022-12-29T04:09:41.905Z,-0.83
2022-12-29T04:10:47.803Z,-0.88
2022-12-29T04:11:51.204Z,-0.94
2022-12-29T04:12:54.963Z,-1.02
2022-12-29T04:13:57.651Z,-1.08
2022-12-29T04:15:02.435Z,-1.15
2022-12-29T04:16:24.167Z,-1.28
2022-12-29T04:17:26.149Z,-1.37
2022-12-29T04:18:30.321Z,-1.44
2022-12-29T04:19:33.736Z,-1.52
2022-12-29T04:20:54.962Z,-1.57
2022-12-29T04:21:58.441Z,-1.63
2022-12-29T04:23:01.079Z,-1.71
2022-12-29T04:24:07.332Z,-1.78
2022-12-29T04:25:13.134Z,-1.85
2022-12-29T04:26:16.395Z,-1.92
2022-12-29T04:27:42.153Z,-2.00
2022-12-29T04:29:17.650Z,-2.11
2022-12-29T04:30:30.479Z,-2.18
2022-12-29T04:31:42.075Z,-2.25
2022-12-29T04:32:44.340Z,-2.30
2022-12-29T04:33:47.141Z,-2.34
2022-12-29T04:34:50.281Z,-2.39
2022-12-29T04:35:54.928Z,-2.43
2022-12-29T04:36:57.847Z,-2.49
2022-12-29T04:38:01.746Z,-2.54
2022-12-29T04:39:06.117Z,-2.60
2022-12-29T04:40:11.325Z,-2.63
2022-12-29T04:41:13.091Z,-2.65
2022-12-29T04:42:16.162Z,-2.68
2022-12-29T04:43:20.218Z,-2.71
2022-12-29T04:44:45.053Z,-2.77
2022-12-29T04:45:53.785Z,-2.79
2022-12-29T04:47:06.785Z,-2.80
2022-12-29T04:48:20.741Z,-2.81
2022-12-29T04:49:42.224Z,-2.78
2022-12-29T04:51:15.359Z,-2.78
2022-12-29T04:52:17.629Z,-2.78
2022-12-29T04:53:22.347Z,-2.78
2022-12-29T04:54:24.322Z,-2.80
2022-12-29T04:55:34.970Z,-2.79
2022-12-29T04:56:36.812Z,-2.79
2022-12-29T04:57:39.624Z,-2.77
2022-12-29T04:58:43.050Z,-2.76
2022-12-29T04:59:46.131Z,-2.77
2022-12-29T05:00:47.918Z,-2.77
2022-12-29T05:01:50.864Z,-2.76
2022-12-29T05:02:53.050Z,-2.75
2022-12-29T05:03:56.140Z,-2.73
2022-12-29T05:04:59.242Z,-2.71
2022-12-29T05:06:02.898Z,-2.69
2022-12-29T05:07:06.025Z,-2.67
2022-12-29T05:08:08.796Z,-2.66
2022-12-29T05:09:10.808Z,-2.66
2022-12-29T05:10:13.708Z,-2.65
2022-12-29T05:11:16.343Z,-2.68
2022-12-29T05:12:21.053Z,-2.71
2022-12-29T05:13:33.483Z,-2.77
2022-12-29T05:14:36.946Z,-2.82
2022-12-29T05:15:39.666Z,-2.86
2022-12-29T05:16:42.631Z,-2.89
2022-12-29T05:17:44.829Z,-2.93
2022-12-29T05:18:48.350Z,-2.96
2022-12-29T05:19:50.145Z,-2.97
2022-12-29T05:20:53.510Z,-2.98
2022-12-29T05:21:56.912Z,-2.98
2022-12-29T05:23:01.230Z,-2.97
2022-12-29T05:24:03.634Z,-2.97
2022-12-29T05:25:07.548Z,-2.99
2022-12-29T05:26:20.621Z,-3.01
2022-12-29T05:27:40.199Z,-3.03
2022-12-29T05:28:53.273Z,-3.05
2022-12-29T05:29:56.688Z,-3.03
2022-12-29T05:30:59.006Z,-3.03
2022-12-29T05:32:01.998Z,-3.03
2022-12-29T05:33:04.542Z,-3.04
2022-12-29T05:34:07.347Z,-3.05
2022-12-29T05:35:09.850Z,-3.07
2022-12-29T05:36:14.002Z,-3.09
2022-12-29T05:37:20.724Z,-3.09
2022-12-29T05:38:25.231Z,-3.12
2022-12-29T05:39:27.097Z,-3.16
2022-12-29T05:40:34.234Z,-3.20
2022-12-29T05:41:40.646Z,-3.26
2022-12-29T05:42:52.624Z,-3.31
2022-12-29T05:44:27.388Z,-3.37
2022-12-29T05:45:59.496Z,-3.42
2022-12-29T05:47:18.255Z,-3.46
2022-12-29T05:48:38.122Z,-3.51
2022-12-29T05:49:50.172Z,-3.56
2022-12-29T05:51:05.005Z,-3.60
2022-12-29T05:52:21.788Z,-3.65
2022-12-29T05:53:26.668Z,-3.66
2022-12-29T05:54:28.572Z,-3.68
2022-12-29T05:55:32.450Z,-3.69
2022-12-29T05:56:35.348Z,-3.69
2022-12-29T05:57:38.204Z,-3.69
2022-12-29T05:58:46.328Z,-3.69
2022-12-29T05:59:49.396Z,-3.71
2022-12-29T06:00:52.909Z,-3.72
2022-12-29T06:01:54.998Z,-3.76
2022-12-29T06:02:58.951Z,-3.78
2022-12-29T06:04:02.065Z,-3.82
2022-12-29T06:05:05.439Z,-3.89
2022-12-29T06:06:25.689Z,-3.97
2022-12-29T06:07:29.155Z,-4.03
2022-12-29T06:08:32.316Z,-4.05
2022-12-29T06:09:35.443Z,-4.06
2022-12-29T06:10:38.624Z,-4.07
2022-12-29T06:11:42.354Z,-4.08
2022-12-29T06:12:44.224Z,-4.10
2022-12-29T06:14:05.546Z,-4.11
2022-12-29T06:15:09.874Z,-4.11
2022-12-29T06:16:15.357Z,-4.12
2022-12-29T06:17:20.143Z,-4.12
2022-12-29T06:18:22.035Z,-4.12
2022-12-29T06:19:24.818Z,-4.12
2022-12-29T06:20:26.638Z,-4.13
2022-12-29T06:21:29.548Z,-4.13
2022-12-29T06:22:33.750Z,-4.12
2022-12-29T06:23:38.887Z,-4.10
2022-12-29T06:24:40.972Z,-4.08
2022-12-29T06:25:43.840Z,-4.06
2022-12-29T06:26:45.728Z,-4.03
2022-12-29T06:27:49.537Z,-4.03
2022-12-29T06:28:51.301Z,-4.07
2022-12-29T06:29:54.057Z,-4.09
2022-12-29T06:30:57.109Z,-4.10
2022-12-29T06:31:59.401Z,-4.11
2022-12-29T06:33:03.578Z,-4.07
2022-12-29T06:34:08.535Z,-4.07
2022-12-29T06:35:12.827Z,-4.05
2022-12-29T06:36:25.508Z,-4.01
2022-12-29T06:37:28.383Z,-3.97
2022-12-29T06:38:31.187Z,-3.92
2022-12-29T06:39:36.692Z,-3.88
2022-12-29T06:40:47.251Z,-3.83
2022-12-29T06:42:11.930Z,-3.81
2022-12-29T06:43:33.240Z,-3.77
2022-12-29T06:44:54.219Z,-3.77
2022-12-29T06:45:57.092Z,-3.76
2022-12-29T06:46:58.858Z,-3.73
2022-12-29T06:48:01.711Z,-3.73
2022-12-29T06:49:04.999Z,-3.71
2022-12-29T06:50:07.344Z,-3.70
2022-12-29T06:51:10.226Z,-3.68
2022-12-29T06:52:13.214Z,-3.65
2022-12-29T06:53:16.819Z,-3.64
2022-12-29T06:54:18.743Z,-3.61
2022-12-29T06:55:23.382Z,-3.58
2022-12-29T06:56:25.217Z,-3.57
2022-12-29T06:57:28.103Z,-3.53
2022-12-29T06:58:30.027Z,-3.48
2022-12-29T06:59:32.886Z,-3.46
2022-12-29T07:00:34.703Z,-3.42
2022-12-29T07:01:37.962Z,-3.39
2022-12-29T07:02:39.960Z,-3.37
2022-12-29T07:03:43.567Z,-3.33
2022-12-29T07:04:45.435Z,-3.28
2022-12-29T07:05:48.182Z,-3.24
2022-12-29T07:06:50.014Z,-3.20
2022-12-29T07:07:53.222Z,-3.15
2022-12-29T07:08:56.174Z,-3.12
2022-12-29T07:09:58.981Z,-3.07
2022-12-29T07:11:02.162Z,-3.01
2022-12-29T07:12:05.190Z,-2.96
2022-12-29T07:13:08.803Z,-2.90
2022-12-29T07:14:12.961Z,-2.83
2022-12-29T07:15:14.819Z,-2.77
2022-12-29T07:16:18.087Z,-2.70
2022-12-29T07:17:19.933Z,-2.64
2022-12-29T07:18:22.662Z,-2.58
2022-12-29T07:19:24.410Z,-2.50
2022-12-29T07:20:27.487Z,-2.44
2022-12-29T07:21:29.379Z,-2.39
2022-12-29T07:22:32.133Z,-2.35
2022-12-29T07:23:35.091Z,-2.30
2022-12-29T07:24:36.904Z,-2.28
2022-12-29T07:25:41.721Z,-2.26
2022-12-29T07:26:44.862Z,-2.22
2022-12-29T07:27:47.767Z,-2.22
2022-12-29T07:28:49.581Z,-2.20
2022-12-29T07:29:52.430Z,-2.17
2022-12-29T07:30:54.300Z,-2.15
2022-12-29T07:31:57.068Z,-2.15
2022-12-29T07:33:00.001Z,-2.15
2022-12-29T07:34:01.889Z,-2.14
2022-12-29T07:35:05.064Z,-2.14
2022-12-29T07:36:08.296Z,-2.14
2022-12-29T07:37:11.060Z,-2.16
2022-12-29T07:38:12.872Z,-2.17
2022-12-29T07:39:15.719Z,-2.15
2022-12-29T07:40:17.568Z,-2.15
2022-12-29T07:41:20.344Z,-2.13
2022-12-29T07:42:23.545Z,-2.14
2022-12-29T07:43:29.250Z,-2.17
2022-12-29T07:44:55.712Z,-2.20
2022-12-29T07:46:02.064Z,-2.22
2022-12-29T07:47:05.100Z,-2.22
2022-12-29T07:48:09.389Z,-2.21
2022-12-29T07:49:11.423Z,-2.19
2022-12-29T07:50:14.189Z,-2.17
2022-12-29T07:51:15.956Z,-2.18
2022-12-29T07:52:18.725Z,-2.18
2022-12-29T07:53:20.831Z,-2.17
2022-12-29T07:54:24.317Z,-2.17
2022-12-29T07:55:27.265Z,-2.14
2022-12-29T07:56:29.036Z,-2.12
2022-12-29T07:57:33.209Z,-2.10
2022-12-29T07:58:35.126Z,-2.05
2022-12-29T07:59:37.882Z,-2.01
2022-12-29T08:00:40.094Z,-1.96
2022-12-29T08:01:43.015Z,-1.91
2022-12-29T08:02:45.003Z,-1.83
2022-12-29T08:03:51.375Z,-1.75
2022-12-29T08:04:56.964Z,-1.67
2022-12-29T08:05:58.769Z,-1.60
2022-12-29T08:07:01.711Z,-1.51
2022-12-29T08:08:03.687Z,-1.41
2022-12-29T08:09:13.586Z,-1.33
2022-12-29T08:10:20.026Z,-1.22
2022-12-29T08:11:22.846Z,-1.13
2022-12-29T08:12:25.552Z,-1.04
2022-12-29T08:13:28.701Z,-0.95
2022-12-29T08:14:31.516Z,-0.85
2022-12-29T08:15:33.433Z,-0.76
2022-12-29T08:16:36.770Z,-0.69
2022-12-29T08:17:38.941Z,-0.59
2022-12-29T08:18:41.680Z,-0.53
2022-12-29T08:19:44.620Z,-0.44
2022-12-29T08:20:48.693Z,-0.36
2022-12-29T08:21:55.015Z,-0.29
2022-12-29T08:22:56.757Z,-0.20
2022-12-29T08:24:00.042Z,-0.09
2022-12-29T08:25:02.114Z,-0.01
2022-12-29T08:26:06.880Z,0.12
2022-12-29T08:27:18.241Z,0.21
2022-12-29T08:28:23.333Z,0.31
2022-12-29T08:29:26.885Z,0.39
2022-12-29T08:30:29.780Z,0.47
2022-12-29T08:31:31.630Z,0.55
2022-12-29T08:32:34.671Z,0.60
2022-12-29T08:33:36.959Z,0.65
2022-12-29T08:34:39.751Z,0.70
2022-12-29T08:35:42.496Z,0.73
2022-12-29T08:36:44.335Z,0.75
2022-12-29T08:37:47.193Z,0.77
2022-12-29T08:38:49.062Z,0.76
2022-12-29T08:39:52.050Z,0.78
2022-12-29T08:40:53.882Z,0.79
2022-12-29T08:41:56.680Z,0.80
2022-12-29T08:42:59.439Z,0.80
2022-12-29T08:44:01.211Z,0.82
2022-12-29T08:45:06.076Z,0.84
2022-12-29T08:46:08.253Z,0.85
2022-12-29T08:47:11.625Z,0.88
2022-12-29T08:48:13.462Z,0.91
2022-12-29T08:49:16.384Z,0.96
2022-12-29T08:50:19.192Z,1.00
2022-12-29T08:51:24.642Z,1.03
2022-12-29T08:52:28.496Z,1.08
2022-12-29T08:53:31.265Z,1.14
2022-12-29T08:54:34.045Z,1.19
2022-12-29T08:55:36.288Z,1.23
2022-12-29T08:56:39.080Z,1.27
2022-12-29T08:57:41.909Z,1.32
2022-12-29T08:58:54.462Z,1.40
2022-12-29T08:59:57.764Z,1.49
2022-12-29T09:01:01.908Z,1.55
2022-12-29T09:02:04.892Z,1.64
2022-12-29T09:03:07.972Z,1.75
2022-12-29T09:04:16.241Z,1.85
2022-12-29T09:05:19.133Z,1.97
2022-12-29T09:06:22.430Z,2.10
2022-12-29T09:07:24.519Z,2.23
2022-12-29T09:08:27.348Z,2.35
2022-12-29T09:09:30.123Z,2.50
2022-12-29T09:10:31.984Z,2.63
2022-12-29T09:11:34.960Z,2.80
2022-12-29T09:12:37.730Z,2.95
2022-12-29T09:13:40.833Z,3.11
2022-12-29T09:14:45.173Z,3.24
2022-12-29T09:15:47.003Z,3.37
2022-12-29T09:17:10.965Z,3.48
2022-12-29T09:18:20.306Z,3.60
2022-12-29T09:19:22.757Z,3.70
2022-12-29T09:20:25.586Z,3.78
2022-12-29T09:21:27.403Z,3.83
2022-12-29T09:22:30.109Z,3.88
2022-12-29T09:23:33.544Z,3.94
2022-12-29T09:24:35.432Z,3.99
2022-12-29T09:25:38.196Z,4.05
2022-12-29T09:26:46.688Z,4.13
2022-12-29T09:27:50.338Z,4.22
2022-12-29T09:28:52.105Z,4.30
2022-12-29T09:29:55.530Z,4.37
2022-12-29T09:30:58.430Z,4.43
2022-12-29T09:32:07.530Z,4.48
2022-12-29T09:33:10.644Z,4.53
2022-12-29T09:34:12.525Z,4.54
2022-12-29T09:35:15.885Z,4.57
2022-12-29T09:36:18.656Z,4.63
2022-12-29T09:37:40.063Z,4.67
2022-12-29T09:38:41.857Z,4.73
2022-12-29T09:39:49.165Z,4.78
2022-12-29T09:40:59.059Z,4.84
2022-12-29T09:42:08.268Z,4.90
2022-12-29T09:43:33.810Z,4.96
2022-12-29T09:44:47.573Z,5.02
2022-12-29T09:45:57.331Z,5.05
2022-12-29T09:47:01.765Z,5.09
2022-12-29T09:48:09.787Z,5.15
2022-12-29T09:49:20.836Z,5.18
2022-12-29T09:50:25.619Z,5.20
2022-12-29T09:51:29.647Z,5.21
2022-12-29T09:52:34.837Z,5.23
2022-12-29T09:53:38.785Z,5.24
2022-12-29T09:54:54.993Z,5.32
2022-12-29T09:56:02.715Z,5.39
2022-12-29T09:57:04.673Z,5.41
2022-12-29T09:58:14.316Z,5.43
2022-12-29T09:59:18.639Z,5.45
2022-12-29T10:00:24.171Z,5.45
2022-12-29T10:01:31.268Z,5.45
2022-12-29T10:02:39.272Z,5.45
2022-12-29T10:03:48.147Z,5.45
2022-12-29T10:04:50.137Z,5.47
2022-12-29T10:05:55.696Z,5.46
2022-12-29T10:08:32.355Z,5.46
2022-12-29T10:09:38.000Z,5.45
2022-12-29T10:10:42.810Z,5.46
2022-12-29T10:11:58.092Z,5.46
2022-12-29T10:13:07.278Z,5.46
2022-12-29T10:14:19.800Z,5.48
2022-12-29T10:15:34.813Z,5.50
2022-12-29T10:16:43.133Z,5.53
2022-12-29T10:17:50.110Z,5.54
2022-12-29T10:19:06.415Z,5.57
2022-12-29T10:20:31.260Z,5.59
2022-12-29T10:21:45.624Z,5.60
2022-12-29T10:23:07.114Z,5.61
2022-12-29T10:24:12.982Z,5.60
2022-12-29T10:25:18.877Z,5.62
2022-12-29T10:26:24.727Z,5.66
2022-12-29T10:27:26.590Z,5.71
2022-12-29T10:28:36.521Z,5.77
2022-12-29T10:29:43.138Z,5.79
2022-12-29T10:30:45.661Z,5.82
2022-12-29T10:31:51.429Z,5.84
2022-12-29T10:32:57.199Z,5.83
2022-12-29T10:34:02.973Z,5.81
2022-12-29T10:35:06.866Z,5.82
2022-12-29T10:36:16.086Z,5.79
2022-12-29T10:37:34.535Z,5.76
2022-12-29T10:38:41.016Z,5.70
2022-12-29T10:39:47.963Z,5.67
2022-12-29T10:40:53.177Z,5.64
2022-12-29T10:41:59.450Z,5.62
2022-12-29T10:43:02.197Z,5.60
2022-12-29T10:44:05.356Z,5.62
2022-12-29T10:45:14.011Z,5.65
2022-12-29T10:46:19.333Z,5.66
2022-12-29T10:47:26.304Z,5.69
2022-12-29T10:48:32.768Z,5.71
2022-12-29T10:49:41.571Z,5.73
2022-12-29T10:50:44.044Z,5.76
2022-12-29T10:51:48.618Z,5.81
2022-12-29T10:52:51.395Z,5.85
2022-12-29T10:53:56.730Z,5.90
2022-12-29T10:55:02.426Z,5.96
2022-12-29T10:56:06.383Z,6.03
2022-12-29T10:57:11.495Z,6.10
2022-12-29T10:58:15.737Z,6.18
2022-12-29T10:59:23.321Z,6.24
2022-12-29T11:00:26.274Z,6.31
2022-12-29T11:01:35.594Z,6.35
2022-12-29T11:02:48.911Z,6.41
2022-12-29T11:04:04.807Z,6.46
2022-12-29T11:05:08.557Z,6.49
2022-12-29T11:06:13.721Z,6.52
2022-12-29T11:07:18.987Z,6.54
2022-12-29T11:08:28.319Z,6.54
2022-12-29T11:09:47.716Z,6.52
2022-12-29T11:11:11.422Z,6.45
2022-12-29T11:12:25.518Z,6.43
2022-12-29T11:13:36.503Z,6.40
2022-12-29T11:14:41.684Z,6.38
2022-12-29T11:15:46.231Z,6.35
2022-12-29T11:16:59.333Z,6.33
2022-12-29T11:18:01.104Z,6.31
2022-12-29T11:19:05.526Z,6.30
2022-12-29T11:20:27.102Z,6.29
2022-12-29T11:21:34.749Z,6.29
2022-12-29T11:22:37.773Z,6.28
2022-12-29T11:23:42.017Z,6.27
2022-12-29T11:24:48.223Z,6.29
2022-12-29T11:26:08.352Z,6.34
2022-12-29T11:27:16.982Z,6.36
2022-12-29T11:28:18.767Z,6.38
2022-12-29T11:29:26.389Z,6.40
2022-12-29T11:30:30.228Z,6.43
2022-12-29T11:31:33.086Z,6.44
2022-12-29T11:32:34.839Z,6.49
2022-12-29T11:33:39.182Z,6.51
2022-12-29T11:34:43.349Z,6.55
2022-12-29T11:35:45.543Z,6.61
2022-12-29T11:36:48.929Z,6.67
2022-12-29T11:37:58.542Z,6.72
2022-12-29T11:39:01.827Z,6.77
2022-12-29T11:40:06.533Z,6.80
2022-12-29T11:41:12.218Z,6.86
2022-12-29T11:42:17.462Z,6.88
2022-12-29T11:43:24.600Z,6.90
2022-12-29T11:44:27.572Z,6.92
2022-12-29T11:45:33.504Z,6.96
2022-12-29T11:46:39.555Z,6.98
2022-12-29T11:47:44.153Z,7.02
2022-12-29T11:48:48.910Z,7.06
2022-12-29T11:49:55.117Z,7.10
2022-12-29T11:51:00.545Z,7.14
2022-12-29T11:52:02.365Z,7.20
2022-12-29T11:53:07.240Z,7.24
2022-12-29T11:54:17.861Z,7.29
2022-12-29T11:55:23.025Z,7.31
2022-12-29T11:56:40.100Z,7.34
2022-12-29T11:57:44.244Z,7.37
2022-12-29T11:58:46.209Z,7.38
2022-12-29T11:59:52.253Z,7.39
2022-12-29T12:00:55.080Z,7.41
2022-12-29T12:01:58.628Z,7.43
2022-12-29T12:03:03.052Z,7.42
2022-12-29T12:04:08.226Z,7.37
2022-12-29T12:05:17.216Z,7.38
2022-12-29T12:06:25.103Z,7.40
2022-12-29T12:07:35.016Z,7.42
2022-12-29T12:08:39.915Z,7.43
2022-12-29T12:09:46.649Z,7.45
2022-12-29T12:10:53.407Z,7.50
2022-12-29T12:11:55.956Z,7.52
2022-12-29T12:13:05.495Z,7.51
2022-12-29T12:14:14.960Z,7.49
2022-12-29T12:15:46.734Z,7.48
2022-12-29T12:16:54.340Z,7.45
2022-12-29T12:18:02.195Z,7.42
2022-12-29T12:19:08.925Z,7.43
2022-12-29T12:20:18.906Z,7.43
2022-12-29T12:21:26.818Z,7.43
2022-12-29T12:22:32.731Z,7.45
2022-12-29T12:23:43.184Z,7.49
2022-12-29T12:24:49.609Z,7.54
2022-12-29T12:25:58.899Z,7.59
2022-12-29T12:27:02.800Z,7.63
2022-12-29T12:28:12.792Z,7.64
2022-12-29T12:29:20.664Z,7.64
2022-12-29T12:30:46.960Z,7.63
2022-12-29T12:31:53.702Z,7.65
2022-12-29T12:32:58.896Z,7.69
2022-12-29T12:34:04.692Z,7.72
2022-12-29T12:35:08.310Z,7.77
2022-12-29T12:36:36.558Z,7.81
2022-12-29T12:37:58.553Z,7.79
2022-12-29T12:39:03.861Z,7.79
2022-12-29T12:40:25.258Z,7.81
2022-12-29T12:41:36.162Z,7.80
2022-12-29T12:42:45.061Z,7.82
2022-12-29T12:43:51.599Z,7.81
2022-12-29T12:45:18.191Z,7.80
2022-12-29T12:46:45.127Z,7.77
2022-12-29T12:47:55.599Z,7.82
2022-12-29T12:49:09.287Z,7.88
2022-12-29T12:50:34.713Z,7.92
2022-12-29T12:51:44.996Z,7.93
2022-12-29T12:53:04.123Z,7.99
2022-12-29T12:54:27.134Z,8.03
2022-12-29T12:55:39.726Z,8.10
2022-12-29T12:56:53.789Z,8.12
2022-12-29T12:58:01.748Z,8.12
2022-12-29T12:59:10.322Z,8.06
2022-12-29T13:00:13.506Z,8.03
2022-12-29T13:01:27.538Z,8.00
2022-12-29T13:02:37.863Z,7.96
2022-12-29T13:03:51.517Z,7.90
2022-12-29T13:05:10.774Z,7.83
2022-12-29T13:06:19.613Z,7.76
2022-12-29T13:07:32.398Z,7.69
2022-12-29T13:08:55.155Z,7.63
2022-12-29T13:10:18.029Z,7.56
2022-12-29T13:11:24.700Z,7.52
2022-12-29T13:12:34.632Z,7.51
2022-12-29T13:13:55.657Z,7.50
2022-12-29T13:15:05.417Z,7.49
2022-12-29T13:16:14.760Z,7.48
2022-12-29T13:17:21.829Z,7.47
2022-12-29T13:18:27.816Z,7.46
2022-12-29T13:19:34.385Z,7.48
2022-12-29T13:20:41.520Z,7.48
2022-12-29T13:22:01.909Z,7.49
2022-12-29T13:23:13.272Z,7.47
2022-12-29T13:24:18.886Z,7.49
2022-12-29T13:25:29.763Z,7.48
2022-12-29T13:26:35.051Z,7.49
2022-12-29T13:27:42.767Z,7.51
2022-12-29T13:28:55.135Z,7.61
2022-12-29T13:30:03.006Z,7.70
2022-12-29T13:31:09.595Z,7.72
2022-12-29T13:32:24.102Z,7.68
2022-12-29T13:33:33.341Z,7.65
2022-12-29T13:34:40.380Z,7.63
2022-12-29T13:35:57.624Z,7.59
2022-12-29T13:37:01.202Z,7.55
2022-12-29T13:38:11.556Z,7.53
2022-12-29T13:39:21.103Z,7.51
2022-12-29T13:40:26.219Z,7.51
2022-12-29T13:41:32.627Z,7.49
2022-12-29T13:42:35.566Z,7.49
2022-12-29T13:43:41.855Z,7.52
2022-12-29T13:44:46.361Z,7.56
2022-12-29T13:45:56.266Z,7.61
2022-12-29T13:47:02.543Z,7.73
2022-12-29T13:48:08.313Z,7.83
2022-12-29T13:49:15.016Z,7.91
2022-12-29T13:50:19.685Z,8.04
2022-12-29T13:51:27.752Z,7.98
2022-12-29T13:52:34.840Z,7.90
2022-12-29T13:53:50.135Z,7.93
2022-12-29T13:54:58.806Z,7.87
2022-12-29T13:56:06.786Z,7.82
2022-12-29T13:57:14.660Z,7.79
2022-12-29T13:58:24.144Z,7.75
2022-12-29T13:59:39.452Z,7.69
2022-12-29T14:00:48.240Z,7.56
2022-12-29T14:01:55.980Z,7.49
2022-12-29T14:03:17.669Z,7.40
2022-12-29T14:04:25.477Z,7.35
2022-12-29T14:05:31.738Z,7.34
2022-12-29T14:06:41.276Z,7.31
2022-12-29T14:07:43.156Z,7.24
2022-12-29T14:08:48.019Z,7.17
2022-12-29T14:09:52.648Z,7.11
2022-12-29T14:10:54.683Z,7.03
2022-12-29T14:12:00.273Z,6.97
2022-12-29T14:13:05.244Z,6.87
2022-12-29T14:14:13.862Z,6.81
2022-12-29T14:15:22.241Z,6.72
2022-12-29T14:16:33.433Z,6.67
2022-12-29T14:17:35.621Z,6.58
2022-12-29T14:18:44.454Z,6.53
2022-12-29T14:19:46.785Z,6.46
2022-12-29T14:20:55.344Z,6.41
2022-12-29T14:22:00.018Z,6.36
2022-12-29T14:23:03.219Z,6.30
2022-12-29T14:24:30.285Z,6.22
2022-12-29T14:25:56.531Z,6.14
2022-12-29T14:26:59.628Z,6.09
2022-12-29T14:28:17.198Z,6.05
2022-12-29T14:29:45.136Z,5.98
2022-12-29T14:30:51.693Z,5.91
2022-12-29T14:31:55.008Z,5.87
2022-12-29T14:33:04.136Z,5.81
2022-12-29T14:34:40.561Z,5.74
2022-12-29T14:35:44.148Z,5.65
2022-12-29T14:36:55.552Z,5.59
2022-12-29T14:38:07.559Z,5.54
2022-12-29T14:39:42.708Z,5.50
2022-12-29T14:40:46.952Z,5.42
2022-12-29T14:41:49.745Z,5.38
2022-12-29T14:42:52.837Z,5.33
2022-12-29T14:43:58.212Z,5.26
2022-12-29T14:45:04.101Z,5.18
2022-12-29T14:46:10.104Z,5.12
2022-12-29T14:47:18.114Z,5.05
2022-12-29T14:48:43.091Z,4.99
2022-12-29T14:49:46.450Z,4.93
2022-12-29T14:50:48.216Z,4.90
2022-12-29T14:51:52.876Z,4.86
2022-12-29T14:53:02.944Z,4.81
2022-12-29T14:54:40.414Z,4.75
2022-12-29T14:55:47.433Z,4.66
2022-12-29T14:56:50.644Z,4.58
2022-12-29T14:57:55.638Z,4.53
2022-12-29T14:59:02.939Z,4.48
2022-12-29T15:00:20.144Z,4.44
2022-12-29T15:01:36.993Z,4.42